Time;durP1;ratioP1;P1;durP2;ratioP2;P2;SDS_P1;SDS_P2;PMS_P1;PMS_P2;Temp;Humidity;BMP_temperature;BMP_pressure;BME280_temperature;BME280_humidity;BME280_pressure;Samples;Min_cycle;Max_cycle;Signal;HPM_P1;HPM_P2
2023/11/30 00:02:10;;;;;;;4.55;4.25;;;;;;;;;;4969305;29;20063;-83
2023/11/30 00:04:36;;;;;;;4.55;4.15;;;;;;;;;;4944704;29;20103;-81
2023/11/30 00:07:03;;;;;;;4.75;4.28;;;;;;;;;;4959414;29;20031;-82
2023/11/30 00:09:29;;;;;;;4.07;3.78;;;;;;;;;;4944776;29;20020;-82
2023/11/30 00:11:55;;;;;;;3.67;3.38;;;;;;;;;;4943228;29;20107;-81
2023/11/30 00:14:21;;;;;;;3.13;2.92;;;;;;;;;;4951601;29;20055;-84
2023/11/30 00:16:47;;;;;;;5.13;4.72;;;;;;;;;;4936065;29;20138;-83
2023/11/30 00:19:13;;;;;;;4.40;4.10;;;;;;;;;;4962439;29;20031;-82
2023/11/30 00:21:39;;;;;;;12.32;3.97;;;;;;;;;;4924953;29;20070;-83
2023/11/30 00:24:05;;;;;;;3.63;3.33;;;;;;;;;;4957811;29;20035;-83
2023/11/30 00:26:31;;;;;;;3.55;3.30;;;;;;;;;;4952870;29;20114;-82
2023/11/30 00:28:58;;;;;;;3.85;3.55;;;;;;;;;;4976189;29;20032;-82
2023/11/30 00:31:25;;;;;;;4.63;4.28;;;;;;;;;;4946471;29;20027;-83
2023/11/30 00:33:51;;;;;;;4.35;3.95;;;;;;;;;;5061077;23;20062;-84
2023/11/30 00:36:17;;;;;;;4.15;3.85;;;;;;;;;;4991425;28;20055;-83
2023/11/30 00:38:43;;;;;;;4.30;4.00;;;;;;;;;;4962362;29;20034;-82
2023/11/30 00:41:16;;;;;;;5.20;4.53;;;;;;;;;;5061025;23;20081;-83
2023/11/30 00:43:43;;;;;;;5.95;4.65;;;;;;;;;;4965471;29;20038;-81
2023/11/30 00:46:13;;;;;;;4.03;3.72;;;;;;;;;;4974476;28;20051;-85
2023/11/30 00:48:40;;;;;;;4.57;4.28;;;;;;;;;;4974395;28;20044;-82
2023/11/30 00:51:10;;;;;;;4.68;3.95;;;;;;;;;;4990227;28;20047;-82
2023/11/30 00:53:37;;;;;;;5.10;4.70;;;;;;;;;;4989598;28;20039;-82
2023/11/30 00:56:03;;;;;;;4.35;3.95;;;;;;;;;;4985210;28;20047;-81
2023/11/30 00:58:29;;;;;;;3.42;3.22;;;;;;;;;;4958291;28;20035;-82
2023/11/30 01:00:55;;;;;;;4.22;3.92;;;;;;;;;;4973199;28;20191;-80
2023/11/30 01:03:21;;;;;;;4.30;3.90;;;;;;;;;;4990717;28;20020;-83
2023/11/30 01:05:47;;;;;;;5.07;4.68;;;;;;;;;;5037836;23;20043;-81
2023/11/30 01:08:13;;;;;;;3.58;3.38;;;;;;;;;;5015209;28;20058;-81
2023/11/30 01:10:41;;;;;;;4.18;3.85;;;;;;;;;;4986611;28;20109;-83
2023/11/30 01:13:07;;;;;;;3.97;3.72;;;;;;;;;;5004607;28;20032;-84
2023/11/30 01:15:33;;;;;;;4.80;4.40;;;;;;;;;;5003313;28;20050;-82
2023/11/30 01:17:59;;;;;;;4.38;3.97;;;;;;;;;;4984251;28;20183;-81
2023/11/30 01:20:25;;;;;;;3.20;2.92;;;;;;;;;;4986492;28;20082;-82
2023/11/30 01:22:51;;;;;;;5.20;4.70;;;;;;;;;;5013076;28;20101;-84
2023/11/30 01:25:17;;;;;;;4.93;4.53;;;;;;;;;;5003653;28;20061;-83
2023/11/30 01:27:43;;;;;;;4.28;3.90;;;;;;;;;;4999802;28;20161;-81
2023/11/30 01:30:10;;;;;;;4.60;4.20;;;;;;;;;;5049131;23;20069;-81
2023/11/30 01:32:36;;;;;;;2.92;2.72;;;;;;;;;;5382982;23;20092;-83
2023/11/30 01:35:03;;;;;;;3.15;2.72;;;;;;;;;;5017941;28;20018;-82
2023/11/30 01:37:29;;;;;;;3.47;3.17;;;;;;;;;;5011969;28;20046;-83
2023/11/30 01:39:56;;;;;;;3.63;3.22;;;;;;;;;;4984193;28;20069;-81
2023/11/30 01:42:22;;;;;;;3.90;3.50;;;;;;;;;;5014920;28;20050;-81
2023/11/30 01:44:47;;;;;;;4.50;3.05;;;;;;;;;;4994058;28;20039;-81
2023/11/30 01:47:14;;;;;;;3.10;2.83;;;;;;;;;;4996650;28;20050;-80
2023/11/30 01:49:41;;;;;;;4.30;4.00;;;;;;;;;;5006736;28;20038;-82
2023/11/30 01:52:07;;;;;;;3.58;3.28;;;;;;;;;;5000458;28;20062;-80
2023/11/30 01:54:33;;;;;;;5.32;3.35;;;;;;;;;;4996808;28;20054;-83
2023/11/30 01:56:59;;;;;;;3.15;2.95;;;;;;;;;;5180584;23;20790;-82
2023/11/30 01:59:25;;;;;;;3.97;3.65;;;;;;;;;;5106514;23;20034;-84
2023/11/30 02:01:51;;;;;;;3.55;3.25;;;;;;;;;;4998728;28;20078;-83
2023/11/30 02:04:16;;;;;;;4.03;3.67;;;;;;;;;;5004026;28;20045;-83
2023/11/30 02:06:44;;;;;;;4.07;3.75;;;;;;;;;;5000710;28;20052;-82
2023/11/30 02:12:07;;;;;;;3.90;3.70;;;;;;;;;;5226605;23;20041;-84
2023/11/30 02:14:34;;;;;;;3.88;3.67;;;;;;;;;;4982337;28;20062;-82
2023/11/30 02:17:01;;;;;;;3.63;3.42;;;;;;;;;;4991381;28;20066;-84
2023/11/30 02:19:28;;;;;;;2.83;2.63;;;;;;;;;;5010465;28;20085;-82
2023/11/30 02:21:54;;;;;;;2.28;2.17;;;;;;;;;;5007380;28;20050;-81
2023/11/30 02:24:20;;;;;;;4.65;4.35;;;;;;;;;;5007100;28;20027;-82
2023/11/30 02:26:46;;;;;;;3.40;3.20;;;;;;;;;;5004280;28;20506;-83
2023/11/30 02:29:15;;;;;;;3.88;3.67;;;;;;;;;;4996284;28;20050;-82
2023/11/30 02:31:42;;;;;;;3.13;2.92;;;;;;;;;;5001654;28;20125;-82
2023/11/30 02:34:08;;;;;;;2.88;2.72;;;;;;;;;;4970256;28;20042;-82
2023/11/30 02:36:34;;;;;;;2.75;2.55;;;;;;;;;;5010347;28;20049;-82
2023/11/30 02:39:02;;;;;;;3.97;3.67;;;;;;;;;;4999073;28;20043;-83
2023/11/30 02:41:28;;;;;;;3.15;2.95;;;;;;;;;;5012912;28;20088;-83
2023/11/30 02:43:55;;;;;;;3.30;3.10;;;;;;;;;;5082645;23;20121;-80
2023/11/30 02:46:21;;;;;;;3.88;3.67;;;;;;;;;;5015866;28;20034;-82
2023/11/30 02:48:47;;;;;;;4.03;3.83;;;;;;;;;;4999147;28;20054;-82
2023/11/30 02:51:13;;;;;;;3.63;3.42;;;;;;;;;;5152391;23;20047;-84
2023/11/30 02:53:39;;;;;;;4.03;3.83;;;;;;;;;;5003998;28;20039;-83
2023/11/30 02:56:05;;;;;;;3.72;3.53;;;;;;;;;;5373512;23;20043;-83
2023/11/30 02:58:33;;;;;;;4.68;4.38;;;;;;;;;;5239967;23;20071;-79
2023/11/30 03:00:59;;;;;;;4.40;4.10;;;;;;;;;;5115571;23;20026;-84
2023/11/30 03:03:25;;;;;;;4.07;3.88;;;;;;;;;;4973951;28;20139;-83
2023/11/30 03:05:51;;;;;;;4.72;4.35;;;;;;;;;;5360098;23;20471;-84
2023/11/30 03:08:18;;;;;;;4.07;3.78;;;;;;;;;;5203818;23;20117;-84
2023/11/30 03:10:43;;;;;;;4.30;4.00;;;;;;;;;;5385009;23;20063;-80
2023/11/30 03:13:09;;;;;;;4.18;3.88;;;;;;;;;;4957404;29;20043;-82
2023/11/30 03:15:42;;;;;;;3.72;3.53;;;;;;;;;;4956435;29;20047;-79
2023/11/30 03:18:08;;;;;;;4.13;3.90;;;;;;;;;;4956667;29;20067;-81
2023/11/30 03:20:35;;;;;;;4.75;4.43;;;;;;;;;;4972947;29;20038;-80
2023/11/30 03:23:02;;;;;;;4.70;4.43;;;;;;;;;;4955741;29;20047;-80
2023/11/30 03:25:28;;;;;;;5.68;5.28;;;;;;;;;;4973586;28;20043;-81
2023/11/30 03:27:54;;;;;;;4.32;4.03;;;;;;;;;;4972085;28;20050;-79
2023/11/30 03:30:20;;;;;;;3.90;3.70;;;;;;;;;;4971768;28;20047;-81
2023/11/30 03:32:46;;;;;;;4.55;4.25;;;;;;;;;;4937638;29;20051;-81
2023/11/30 03:35:12;;;;;;;4.68;4.28;;;;;;;;;;4970552;29;20062;-81
2023/11/30 03:37:40;;;;;;;5.25;4.85;;;;;;;;;;4968264;29;20039;-80
2023/11/30 03:40:07;;;;;;;3.83;3.63;;;;;;;;;;4933343;28;20043;-80
2023/11/30 03:42:33;;;;;;;4.40;4.10;;;;;;;;;;4948259;29;20050;-80
2023/11/30 03:44:59;;;;;;;4.13;3.92;;;;;;;;;;4950911;29;20090;-80
2023/11/30 03:47:25;;;;;;;3.88;3.58;;;;;;;;;;4969466;29;20050;-80
2023/11/30 03:49:51;;;;;;;4.80;4.50;;;;;;;;;;4967014;29;20039;-81
2023/11/30 03:52:17;;;;;;;5.18;4.22;;;;;;;;;;4951431;29;20050;-81
2023/11/30 03:54:43;;;;;;;4.20;3.97;;;;;;;;;;4947123;28;20043;-79
2023/11/30 03:57:09;;;;;;;3.53;3.33;;;;;;;;;;4942221;29;20043;-79
2023/11/30 03:59:35;;;;;;;3.58;3.38;;;;;;;;;;4963837;28;20053;-81
2023/11/30 04:02:01;;;;;;;3.97;3.67;;;;;;;;;;4954426;29;20111;-82
2023/11/30 04:04:28;;;;;;;3.35;3.15;;;;;;;;;;4957277;28;20067;-81
2023/11/30 04:06:53;;;;;;;4.00;3.80;;;;;;;;;;4977592;28;21495;-81
2023/11/30 04:09:19;;;;;;;3.83;3.55;;;;;;;;;;4977410;28;20046;-82
2023/11/30 04:11:46;;;;;;;4.53;3.88;;;;;;;;;;4978862;28;20132;-80
2023/11/30 04:14:12;;;;;;;5.03;4.63;;;;;;;;;;4939603;29;20059;-80
2023/11/30 04:16:37;;;;;;;4.20;3.80;;;;;;;;;;4954707;29;20042;-80
2023/11/30 04:19:04;;;;;;;5.03;4.63;;;;;;;;;;4974487;28;20028;-82
2023/11/30 04:21:31;;;;;;;4.60;4.20;;;;;;;;;;5053400;23;20046;-82
2023/11/30 04:23:56;;;;;;;4.57;4.28;;;;;;;;;;5007242;28;20057;-81
2023/11/30 04:26:22;;;;;;;4.38;4.15;;;;;;;;;;4997816;28;20035;-82
2023/11/30 04:28:48;;;;;;;3.40;3.17;;;;;;;;;;5005686;28;20046;-82
2023/11/30 04:31:15;;;;;;;4.90;4.57;;;;;;;;;;4991892;28;20042;-82
2023/11/30 04:33:44;;;;;;;6.13;5.63;;;;;;;;;;5006540;28;20042;-84
2023/11/30 04:36:11;;;;;;;4.93;4.53;;;;;;;;;;4991339;28;20046;-83
2023/11/30 04:38:37;;;;;;;8.93;6.63;;;;;;;;;;4981346;28;20484;-81
2023/11/30 04:41:03;;;;;;;4.40;4.10;;;;;;;;;;4980991;28;20043;-82
2023/11/30 04:43:29;;;;;;;6.50;6.00;;;;;;;;;;4976521;28;20074;-82
2023/11/30 04:45:55;;;;;;;4.75;4.45;;;;;;;;;;4992854;28;20047;-82
2023/11/30 04:48:21;;;;;;;6.00;5.60;;;;;;;;;;4990998;28;20186;-81
2023/11/30 04:50:47;;;;;;;5.80;5.40;;;;;;;;;;4984139;28;20069;-81
2023/11/30 04:53:14;;;;;;;4.47;4.18;;;;;;;;;;4984329;28;20035;-81
2023/11/30 04:55:40;;;;;;;5.40;4.15;;;;;;;;;;4962746;28;20074;-80
2023/11/30 04:58:06;;;;;;;6.28;5.78;;;;;;;;;;4979340;28;20521;-81
2023/11/30 05:00:32;;;;;;;4.90;4.60;;;;;;;;;;4943844;28;20513;-80
2023/11/30 05:02:58;;;;;;;3.95;3.75;;;;;;;;;;4982304;28;20050;-79
2023/11/30 05:05:24;;;;;;;6.05;5.40;;;;;;;;;;4982550;28;20035;-79
2023/11/30 05:07:50;;;;;;;5.68;5.28;;;;;;;;;;4979159;28;20054;-79
2023/11/30 05:10:16;;;;;;;4.50;4.20;;;;;;;;;;4978239;28;20121;-79
2023/11/30 05:12:45;;;;;;;4.43;4.13;;;;;;;;;;4958210;28;20524;-78
2023/11/30 05:15:11;;;;;;;5.65;5.15;;;;;;;;;;4974745;28;20076;-78
2023/11/30 05:17:37;;;;;;;4.72;4.43;;;;;;;;;;4974924;28;20042;-78
2023/11/30 05:20:03;;;;;;;10.55;3.85;;;;;;;;;;4943835;28;21379;-78
2023/11/30 05:22:31;;;;;;;4.53;4.10;;;;;;;;;;4956953;28;20078;-78
2023/11/30 05:24:57;;;;;;;4.65;4.35;;;;;;;;;;4975761;28;20587;-78
2023/11/30 05:27:23;;;;;;;6.10;5.57;;;;;;;;;;4974656;28;20031;-83
2023/11/30 05:29:48;;;;;;;7.10;6.53;;;;;;;;;;4996772;28;20019;-84
2023/11/30 05:32:15;;;;;;;5.57;4.50;;;;;;;;;;4976123;28;20522;-83
2023/11/30 05:34:41;;;;;;;5.35;4.95;;;;;;;;;;4994917;28;20023;-83
2023/11/30 05:37:07;;;;;;;5.93;5.25;;;;;;;;;;4994929;28;20108;-83
2023/11/30 05:39:36;;;;;;;4.00;3.70;;;;;;;;;;4994358;28;20042;-84
2023/11/30 05:42:03;;;;;;;4.90;4.60;;;;;;;;;;4992180;28;20281;-82
2023/11/30 05:44:29;;;;;;;4.65;4.30;;;;;;;;;;4972024;28;20039;-82
2023/11/30 05:46:54;;;;;;;6.93;6.43;;;;;;;;;;4976619;28;20086;-79
2023/11/30 05:49:20;;;;;;;5.13;4.38;;;;;;;;;;4974729;28;20411;-81
2023/11/30 05:51:46;;;;;;;6.25;5.72;;;;;;;;;;4949177;28;20113;-80
2023/11/30 05:54:12;;;;;;;6.95;6.45;;;;;;;;;;4982135;28;20043;-81
2023/11/30 05:56:38;;;;;;;6.40;5.90;;;;;;;;;;4979944;28;20058;-82
2023/11/30 05:59:04;;;;;;;8.50;7.82;;;;;;;;;;4974433;28;20366;-82
2023/11/30 06:01:30;;;;;;;11.40;10.45;;;;;;;;;;4976597;28;20051;-81
2023/11/30 06:03:56;;;;;;;6.78;6.18;;;;;;;;;;4975508;28;20478;-78
2023/11/30 06:06:22;;;;;;;9.77;6.30;;;;;;;;;;4951868;28;20501;-81
2023/11/30 06:08:48;;;;;;;9.93;9.13;;;;;;;;;;4958101;28;21019;-79
2023/11/30 06:11:16;;;;;;;7.82;7.13;;;;;;;;;;4971986;28;20074;-79
2023/11/30 06:13:43;;;;;;;8.95;8.15;;;;;;;;;;4978563;28;20078;-82
2023/11/30 06:16:09;;;;;;;8.73;7.28;;;;;;;;;;4991244;28;20035;-83
2023/11/30 06:18:34;;;;;;;7.88;7.07;;;;;;;;;;4972142;28;20050;-79
2023/11/30 06:21:00;;;;;;;7.95;7.30;;;;;;;;;;4988137;28;20050;-82
2023/11/30 06:23:26;;;;;;;7.70;6.97;;;;;;;;;;4952235;29;20047;-82
2023/11/30 06:25:52;;;;;;;8.95;8.13;;;;;;;;;;4975592;28;20058;-82
2023/11/30 06:28:20;;;;;;;8.45;7.75;;;;;;;;;;4947949;29;20047;-83
2023/11/30 06:30:47;;;;;;;9.18;8.35;;;;;;;;;;4945652;29;20043;-80
2023/11/30 06:33:13;;;;;;;7.82;7.22;;;;;;;;;;4981116;28;20067;-83
2023/11/30 06:35:39;;;;;;;11.35;10.38;;;;;;;;;;4986773;28;20046;-81
2023/11/30 06:38:05;;;;;;;8.05;7.45;;;;;;;;;;4963704;28;20430;-81
2023/11/30 06:40:31;;;;;;;7.63;6.90;;;;;;;;;;4962021;28;20038;-82
2023/11/30 06:42:57;;;;;;;11.55;9.40;;;;;;;;;;4979965;28;20492;-82
2023/11/30 06:45:22;;;;;;;8.45;7.38;;;;;;;;;;4980250;28;20105;-82
2023/11/30 06:47:48;;;;;;;7.80;7.15;;;;;;;;;;4979632;28;20148;-81
2023/11/30 06:50:14;;;;;;;8.77;8.07;;;;;;;;;;4980201;28;20602;-81
2023/11/30 06:52:40;;;;;;;12.20;10.15;;;;;;;;;;4948331;29;20043;-80
2023/11/30 06:55:06;;;;;;;11.90;8.68;;;;;;;;;;4956962;29;20102;-79
2023/11/30 06:57:32;;;;;;;8.20;7.38;;;;;;;;;;4958620;28;20043;-80
2023/11/30 06:59:58;;;;;;;10.85;9.88;;;;;;;;;;4941538;28;20061;-80
2023/11/30 07:02:24;;;;;;;6.10;5.53;;;;;;;;;;4935620;29;20576;-80
2023/11/30 07:04:50;;;;;;;11.15;10.10;;;;;;;;;;4960363;28;20078;-82
2023/11/30 07:07:16;;;;;;;9.10;8.20;;;;;;;;;;4989628;28;20035;-84
2023/11/30 07:09:42;;;;;;;8.70;8.02;;;;;;;;;;4986490;28;20042;-81
2023/11/30 07:12:10;;;;;;;9.60;8.55;;;;;;;;;;4981756;28;20043;-79
2023/11/30 07:14:36;;;;;;;7.65;6.88;;;;;;;;;;4968199;29;20073;-82
2023/11/30 07:17:03;;;;;;;9.48;6.70;;;;;;;;;;4963487;28;20035;-82
2023/11/30 07:19:29;;;;;;;9.13;8.32;;;;;;;;;;4965620;29;20050;-82
2023/11/30 07:21:55;;;;;;;8.45;7.28;;;;;;;;;;4964174;28;20553;-79
2023/11/30 07:24:21;;;;;;;8.40;7.68;;;;;;;;;;4979951;28;20060;-81
2023/11/30 07:26:50;;;;;;;6.72;6.13;;;;;;;;;;4980681;28;20071;-81
2023/11/30 07:29:15;;;;;;;9.07;8.15;;;;;;;;;;4982009;28;20457;-81
2023/11/30 07:31:44;;;;;;;8.82;8.00;;;;;;;;;;4979862;28;20039;-81
2023/11/30 07:34:10;;;;;;;8.10;7.40;;;;;;;;;;4967326;28;20038;-82
2023/11/30 07:36:36;;;;;;;7.07;6.38;;;;;;;;;;4928771;28;20054;-82
2023/11/30 07:39:03;;;;;;;5.90;5.40;;;;;;;;;;4978804;28;20042;-82
2023/11/30 07:41:29;;;;;;;8.93;8.13;;;;;;;;;;4983017;28;20054;-84
2023/11/30 07:43:55;;;;;;;6.57;6.03;;;;;;;;;;4984483;28;20078;-83
2023/11/30 07:46:21;;;;;;;9.10;8.40;;;;;;;;;;4990863;28;20050;-81
2023/11/30 07:48:47;;;;;;;7.75;6.72;;;;;;;;;;4963202;28;20043;-81
2023/11/30 07:51:13;;;;;;;6.82;6.32;;;;;;;;;;4987557;28;20113;-80
2023/11/30 07:53:39;;;;;;;7.10;6.50;;;;;;;;;;4968073;28;20111;-82
2023/11/30 07:56:05;;;;;;;9.27;8.30;;;;;;;;;;4989966;28;20065;-80
2023/11/30 15:06:42;;;;;;;5.97;5.47;;;;;;;;;;3281839;26;20042;-77
2023/11/30 15:09:09;;;;;;;6.80;5.10;;;;;;;;;;4972229;28;20070;-78
2023/11/30 15:11:36;;;;;;;7.63;6.95;;;;;;;;;;4957632;28;20042;-78
2023/11/30 15:14:04;;;;;;;4.25;3.85;;;;;;;;;;4970738;28;20039;-80
2023/11/30 15:16:31;;;;;;;7.20;6.65;;;;;;;;;;4930220;28;20054;-79
2023/11/30 15:18:57;;;;;;;5.85;4.93;;;;;;;;;;4976154;28;20090;-79
2023/11/30 15:21:23;;;;;;;7.13;6.50;;;;;;;;;;4943652;28;20043;-81
2023/11/30 15:23:49;;;;;;;4.45;3.78;;;;;;;;;;4977289;28;20414;-83
2023/11/30 15:26:15;;;;;;;4.78;4.07;;;;;;;;;;4993037;28;20070;-83
2023/11/30 15:28:41;;;;;;;8.38;7.68;;;;;;;;;;4983600;28;20250;-82
2023/11/30 15:31:07;;;;;;;7.18;6.57;;;;;;;;;;4992341;28;20057;-80
2023/11/30 15:33:34;;;;;;;5.82;5.30;;;;;;;;;;4984603;28;20102;-82
2023/11/30 15:36:00;;;;;;;9.23;8.40;;;;;;;;;;4988955;28;20054;-80
2023/11/30 15:38:30;;;;;;;5.82;5.32;;;;;;;;;;4978758;28;20047;-82
2023/11/30 15:40:57;;;;;;;7.78;6.97;;;;;;;;;;4984031;28;20065;-80
2023/11/30 15:43:23;;;;;;;7.82;7.13;;;;;;;;;;4946888;28;20062;-81
2023/11/30 15:45:49;;;;;;;7.18;6.55;;;;;;;;;;4958531;28;20035;-82
2023/11/30 15:48:15;;;;;;;8.00;7.40;;;;;;;;;;4980196;28;20086;-83
2023/11/30 15:50:41;;;;;;;8.38;7.68;;;;;;;;;;4974381;28;20023;-80
2023/11/30 15:53:10;;;;;;;16.45;7.30;;;;;;;;;;4961001;29;20043;-76
2023/11/30 15:55:36;;;;;;;9.70;7.18;;;;;;;;;;4937366;29;20040;-78
2023/11/30 15:58:04;;;;;;;5.38;4.88;;;;;;;;;;4945864;29;20042;-79
2023/11/30 16:00:30;;;;;;;5.97;5.47;;;;;;;;;;4969350;28;20044;-79
2023/11/30 16:02:56;;;;;;;9.25;6.18;;;;;;;;;;4974874;28;20054;-82
2023/11/30 16:05:22;;;;;;;8.65;7.85;;;;;;;;;;4974282;28;20090;-81
2023/11/30 16:07:50;;;;;;;7.47;6.78;;;;;;;;;;4962399;28;20053;-80
2023/11/30 16:10:16;;;;;;;5.32;4.93;;;;;;;;;;4981060;28;20045;-81
2023/11/30 16:12:42;;;;;;;6.97;6.38;;;;;;;;;;4981927;28;20484;-81
2023/11/30 16:15:09;;;;;;;7.78;7.03;;;;;;;;;;4984091;28;20022;-80
2023/11/30 16:17:35;;;;;;;7.43;6.72;;;;;;;;;;4979449;28;20054;-79
2023/11/30 16:20:08;;;;;;;8.88;7.93;;;;;;;;;;4941190;28;20105;-79
2023/11/30 16:22:34;;;;;;;8.00;6.90;;;;;;;;;;4958603;28;20051;-81
2023/11/30 16:25:00;;;;;;;8.48;7.25;;;;;;;;;;4964923;29;20050;-79
2023/11/30 16:27:26;;;;;;;6.53;5.53;;;;;;;;;;4963656;28;20171;-80
2023/11/30 16:29:52;;;;;;;8.68;7.72;;;;;;;;;;4930687;29;20039;-80
2023/11/30 16:32:18;;;;;;;6.45;5.75;;;;;;;;;;4963890;28;20050;-80
2023/11/30 16:34:44;;;;;;;9.93;9.00;;;;;;;;;;4984485;28;20101;-80
2023/11/30 16:37:10;;;;;;;7.07;6.30;;;;;;;;;;4950565;29;20044;-82
2023/11/30 16:39:36;;;;;;;6.85;6.25;;;;;;;;;;4932227;29;20540;-80
2023/11/30 16:42:02;;;;;;;9.63;8.57;;;;;;;;;;4977295;28;20067;-82
2023/11/30 16:44:28;;;;;;;7.57;6.88;;;;;;;;;;4982120;28;20580;-79
2023/11/30 16:46:54;;;;;;;8.20;6.68;;;;;;;;;;4984176;28;20101;-80
2023/11/30 16:49:20;;;;;;;7.40;6.47;;;;;;;;;;4982916;28;20050;-80
2023/11/30 16:51:46;;;;;;;8.05;7.22;;;;;;;;;;4986619;28;20053;-80
2023/11/30 16:54:12;;;;;;;8.50;6.05;;;;;;;;;;4968755;28;20039;-80
2023/11/30 16:56:39;;;;;;;9.98;9.00;;;;;;;;;;4955951;29;20043;-79
2023/11/30 16:59:05;;;;;;;8.00;7.22;;;;;;;;;;4965336;28;20035;-80
2023/11/30 17:01:33;;;;;;;6.97;6.28;;;;;;;;;;4958060;28;20049;-81
2023/11/30 17:04:00;;;;;;;8.13;7.30;;;;;;;;;;4985706;28;20059;-80
2023/11/30 17:06:26;;;;;;;6.00;5.22;;;;;;;;;;4958036;29;20579;-81
2023/11/30 17:08:52;;;;;;;10.80;9.70;;;;;;;;;;4934159;29;20054;-80
2023/11/30 17:11:19;;;;;;;10.48;9.27;;;;;;;;;;4958781;29;20043;-80
2023/11/30 17:13:45;;;;;;;11.95;7.88;;;;;;;;;;4962610;29;20577;-80
2023/11/30 17:16:11;;;;;;;8.65;7.25;;;;;;;;;;4958046;29;20043;-80
2023/11/30 17:18:39;;;;;;;10.02;7.22;;;;;;;;;;4945538;29;20039;-81
2023/11/30 17:21:05;;;;;;;8.18;7.13;;;;;;;;;;4941654;29;20485;-81
2023/11/30 17:23:32;;;;;;;7.32;6.65;;;;;;;;;;4942261;29;20074;-80
2023/11/30 17:25:58;;;;;;;6.97;6.38;;;;;;;;;;4965474;29;20043;-83
2023/11/30 17:28:24;;;;;;;10.55;7.28;;;;;;;;;;4973174;29;20053;-83
2023/11/30 17:30:53;;;;;;;8.18;7.38;;;;;;;;;;4970317;29;20055;-82
2023/11/30 17:33:19;;;;;;;7.32;6.53;;;;;;;;;;4951104;29;20048;-81
2023/11/30 17:35:45;;;;;;;6.68;5.97;;;;;;;;;;4933356;29;20052;-85
2023/11/30 17:38:11;;;;;;;9.13;8.25;;;;;;;;;;4910582;29;20042;-80
2023/11/30 17:40:37;;;;;;;9.57;8.57;;;;;;;;;;4954325;29;20058;-80
2023/11/30 17:43:03;;;;;;;9.20;8.25;;;;;;;;;;4933153;29;20047;-78
2023/11/30 17:45:29;;;;;;;10.60;8.30;;;;;;;;;;4947581;29;20280;-81
2023/11/30 17:47:55;;;;;;;8.07;7.32;;;;;;;;;;4945746;29;20047;-78
2023/11/30 17:50:23;;;;;;;8.93;7.97;;;;;;;;;;4951151;29;20053;-80
2023/11/30 17:52:49;;;;;;;10.13;8.20;;;;;;;;;;4927908;29;20035;-80
2023/11/30 17:55:16;;;;;;;8.93;8.10;;;;;;;;;;4936195;29;20054;-80
2023/11/30 17:57:42;;;;;;;9.57;8.60;;;;;;;;;;4933990;29;20039;-77
2023/11/30 18:00:10;;;;;;;7.40;6.63;;;;;;;;;;4930530;29;20106;-78
2023/11/30 18:02:39;;;;;;;8.88;8.00;;;;;;;;;;4950346;29;20055;-79
2023/11/30 18:05:05;;;;;;;9.77;8.77;;;;;;;;;;4940910;29;20050;-82
2023/11/30 18:07:31;;;;;;;6.85;6.18;;;;;;;;;;4973952;28;20059;-80
2023/11/30 18:09:57;;;;;;;8.38;7.32;;;;;;;;;;4981786;28;20646;-81
2023/11/30 18:12:24;;;;;;;9.77;8.80;;;;;;;;;;4967007;28;20548;-81
2023/11/30 18:14:50;;;;;;;8.32;7.47;;;;;;;;;;4963094;28;20035;-80
2023/11/30 18:17:16;;;;;;;8.45;7.03;;;;;;;;;;4958947;28;20053;-79
2023/11/30 18:19:57;;;;;;;5.43;4.93;;;;;;;;;;4930347;28;20461;-82
2023/11/30 18:22:23;;;;;;;7.50;6.80;;;;;;;;;;4935658;28;20066;-79
2023/11/30 18:24:49;;;;;;;8.07;6.72;;;;;;;;;;4927594;28;20046;-81
2023/11/30 18:27:15;;;;;;;10.45;8.77;;;;;;;;;;4941295;28;20126;-80
2023/11/30 18:29:41;;;;;;;7.07;6.40;;;;;;;;;;4959286;28;20465;-80
2023/11/30 18:32:07;;;;;;;6.38;5.07;;;;;;;;;;4974679;28;20090;-82
2023/11/30 18:34:35;;;;;;;6.80;6.10;;;;;;;;;;4957078;28;20055;-77
2023/11/30 18:37:01;;;;;;;10.63;8.20;;;;;;;;;;4958743;28;20383;-79
2023/11/30 18:39:27;;;;;;;10.35;9.23;;;;;;;;;;4974213;28;20042;-80
2023/11/30 18:41:54;;;;;;;7.47;6.78;;;;;;;;;;4980322;28;20081;-79
2023/11/30 18:44:21;;;;;;;10.63;9.57;;;;;;;;;;4982111;28;20047;-79
2023/11/30 18:46:46;;;;;;;9.23;7.82;;;;;;;;;;4969784;28;20413;-79
2023/11/30 18:49:12;;;;;;;7.68;6.80;;;;;;;;;;4968320;28;20105;-80
2023/11/30 18:51:38;;;;;;;13.63;12.13;;;;;;;;;;4965612;28;20035;-81
2023/11/30 18:54:04;;;;;;;8.10;6.88;;;;;;;;;;4939643;29;20047;-80
2023/11/30 18:56:30;;;;;;;10.18;8.75;;;;;;;;;;4965968;28;20097;-80
2023/11/30 18:58:57;;;;;;;10.02;9.05;;;;;;;;;;4973998;28;20034;-78
2023/11/30 19:01:23;;;;;;;6.00;5.50;;;;;;;;;;4971106;28;20146;-78
2023/11/30 19:03:49;;;;;;;9.95;9.00;;;;;;;;;;4949477;28;20045;-79
2023/11/30 19:06:19;;;;;;;6.03;5.45;;;;;;;;;;4961692;28;20046;-80
2023/11/30 19:08:45;;;;;;;12.07;8.90;;;;;;;;;;4971589;28;20729;-80
2023/11/30 19:11:11;;;;;;;9.07;8.20;;;;;;;;;;4956565;28;20065;-79
2023/11/30 19:13:38;;;;;;;9.68;8.75;;;;;;;;;;4937376;28;20195;-79
2023/11/30 19:16:04;;;;;;;7.85;6.65;;;;;;;;;;4956994;28;20031;-80
2023/11/30 19:18:31;;;;;;;11.27;9.18;;;;;;;;;;4951937;28;20513;-81
2023/11/30 19:20:58;;;;;;;8.85;7.75;;;;;;;;;;4957307;28;20053;-80
2023/11/30 19:23:24;;;;;;;8.85;8.07;;;;;;;;;;4976966;28;20063;-81
2023/11/30 19:25:50;;;;;;;8.95;7.93;;;;;;;;;;4955996;28;20038;-78
2023/11/30 19:28:16;;;;;;;10.90;8.48;;;;;;;;;;4970720;28;20055;-77
2023/11/30 19:30:42;;;;;;;5.65;4.93;;;;;;;;;;4937706;28;20047;-78
2023/11/30 19:33:08;;;;;;;11.52;10.48;;;;;;;;;;4964226;28;20043;-77
2023/11/30 19:35:35;;;;;;;10.23;8.82;;;;;;;;;;4964677;28;20046;-79
2023/11/30 19:38:01;;;;;;;10.57;9.13;;;;;;;;;;4970447;28;20106;-76
2023/11/30 19:40:27;;;;;;;6.72;4.72;;;;;;;;;;4972532;28;20117;-78
2023/11/30 19:42:53;;;;;;;9.13;7.10;;;;;;;;;;4962223;28;20171;-78
2023/11/30 19:45:19;;;;;;;9.50;7.63;;;;;;;;;;4950530;28;20038;-77
2023/11/30 19:47:45;;;;;;;6.03;5.53;;;;;;;;;;4971288;28;20082;-78
2023/11/30 19:50:11;;;;;;;9.75;7.00;;;;;;;;;;4948384;28;20026;-77
2023/11/30 19:52:37;;;;;;;8.82;6.88;;;;;;;;;;4945459;28;20518;-78
2023/11/30 19:55:03;;;;;;;6.25;4.82;;;;;;;;;;4971567;28;20031;-77
2023/11/30 19:57:30;;;;;;;9.30;7.43;;;;;;;;;;4954115;28;20051;-77
2023/11/30 19:59:57;;;;;;;9.00;7.72;;;;;;;;;;4971301;28;20093;-78
2023/11/30 20:02:23;;;;;;;10.65;7.05;;;;;;;;;;4953517;28;20062;-77
2023/11/30 20:04:49;;;;;;;12.82;11.02;;;;;;;;;;4969131;28;20192;-77
2023/11/30 20:07:15;;;;;;;12.95;11.05;;;;;;;;;;4955326;28;20059;-77
2023/11/30 20:09:42;;;;;;;9.50;8.00;;;;;;;;;;4974178;28;20035;-78
2023/11/30 20:12:08;;;;;;;11.25;7.82;;;;;;;;;;4971073;28;20089;-78
2023/11/30 20:14:34;;;;;;;8.63;7.75;;;;;;;;;;4969643;28;20039;-78
2023/11/30 20:17:01;;;;;;;10.23;8.82;;;;;;;;;;4955990;28;20050;-76
2023/11/30 20:19:27;;;;;;;13.75;9.57;;;;;;;;;;4973308;28;20038;-76
2023/11/30 20:21:53;;;;;;;11.80;8.68;;;;;;;;;;4923004;28;20153;-77
2023/11/30 20:24:19;;;;;;;15.13;11.60;;;;;;;;;;4956837;28;20042;-77
2023/11/30 20:26:45;;;;;;;8.30;6.32;;;;;;;;;;4972638;28;20037;-77
2023/11/30 20:29:11;;;;;;;12.20;8.77;;;;;;;;;;4953191;28;20072;-79
2023/11/30 20:31:38;;;;;;;9.05;7.53;;;;;;;;;;4962527;28;20078;-83
2023/11/30 20:34:04;;;;;;;10.55;8.38;;;;;;;;;;5127464;23;20059;-79
2023/11/30 20:36:30;;;;;;;10.65;7.03;;;;;;;;;;4983953;28;20101;-78
2023/11/30 20:38:56;;;;;;;9.40;8.50;;;;;;;;;;4993134;28;20038;-79
2023/11/30 20:41:24;;;;;;;11.75;8.95;;;;;;;;;;4975674;28;20049;-79
2023/11/30 20:43:50;;;;;;;7.85;7.05;;;;;;;;;;4992654;28;20527;-79
2023/11/30 20:46:17;;;;;;;11.82;8.55;;;;;;;;;;4993426;28;20045;-79
2023/11/30 20:48:43;;;;;;;6.72;6.05;;;;;;;;;;4975697;28;20125;-82
2023/11/30 20:51:11;;;;;;;9.55;8.18;;;;;;;;;;4975984;28;20050;-78
2023/11/30 20:53:37;;;;;;;8.52;7.68;;;;;;;;;;4960158;28;20038;-77
2023/11/30 20:56:04;;;;;;;8.20;6.82;;;;;;;;;;4992344;28;20501;-78
2023/11/30 20:58:30;;;;;;;8.05;7.07;;;;;;;;;;4992879;28;20053;-78
2023/11/30 21:00:56;;;;;;;9.98;6.93;;;;;;;;;;4956522;28;20157;-79
2023/11/30 21:03:22;;;;;;;7.05;6.35;;;;;;;;;;4974061;28;20054;-79
2023/11/30 21:05:48;;;;;;;7.75;5.07;;;;;;;;;;4994553;28;20042;-79
2023/11/30 21:08:15;;;;;;;7.72;7.03;;;;;;;;;;4993100;28;20092;-79
2023/11/30 21:10:41;;;;;;;9.23;8.25;;;;;;;;;;4974615;28;20042;-77
2023/11/30 21:13:07;;;;;;;13.07;8.82;;;;;;;;;;4990170;28;20501;-78
2023/11/30 21:15:33;;;;;;;9.80;8.80;;;;;;;;;;4992246;28;20042;-77
2023/11/30 21:17:59;;;;;;;6.20;5.60;;;;;;;;;;4958832;28;20042;-79
2023/11/30 21:20:25;;;;;;;8.98;7.32;;;;;;;;;;4975562;28;20042;-79
2023/11/30 21:22:52;;;;;;;6.35;5.75;;;;;;;;;;4972601;28;20046;-78
2023/11/30 21:25:19;;;;;;;5.82;5.18;;;;;;;;;;4975927;28;20038;-75
2023/11/30 21:27:46;;;;;;;8.48;7.68;;;;;;;;;;4967141;28;20038;-78
2023/11/30 21:30:12;;;;;;;6.68;5.53;;;;;;;;;;4992620;28;20124;-78
2023/11/30 21:32:38;;;;;;;7.05;5.88;;;;;;;;;;4998822;28;20066;-78
2023/11/30 21:35:04;;;;;;;6.25;5.70;;;;;;;;;;5003009;28;20068;-77
2023/11/30 21:37:31;;;;;;;6.40;5.75;;;;;;;;;;5002684;28;20034;-77
2023/11/30 21:39:57;;;;;;;5.18;4.55;;;;;;;;;;4994744;28;20045;-79
2023/11/30 21:42:23;;;;;;;5.30;4.90;;;;;;;;;;4979587;28;20053;-79
2023/11/30 21:44:49;;;;;;;8.00;6.07;;;;;;;;;;5000935;28;20138;-78
2023/11/30 21:47:16;;;;;;;5.47;4.97;;;;;;;;;;4950428;28;20053;-80